Time;durP1;ratioP1;P1;durP2;ratioP2;P2;SDS_P1;SDS_P2;PMS_P1;PMS_P2;Temp;Humidity;BMP_temperature;BMP_pressure;BME280_temperature;BME280_humidity;BME280_pressure;Samples;Min_cycle;Max_cycle;Signal;HPM_P1;HPM_P2
2023/10/14 00:02:21;;;;;;;26.70;16.95;;;;;;;17.59;66.36;99105.97;4440596;32;33208;-86
2023/10/14 00:04:52;;;;;;;24.45;16.65;;;;;;;17.68;65.85;99097.06;4452244;32;34733;-86
2023/10/14 00:07:24;;;;;;;27.67;16.95;;;;;;;17.56;66.17;99089.41;4437896;32;34059;-86
2023/10/14 00:09:56;;;;;;;23.50;15.77;;;;;;;17.60;66.04;99088.47;4466290;32;33602;-86
2023/10/14 00:12:28;;;;;;;24.10;16.23;;;;;;;17.55;66.34;99082.44;4453213;32;33319;-85
2023/10/14 00:15:03;;;;;;;26.20;16.83;;;;;;;17.46;66.56;99079.09;4465510;32;34741;-86
2023/10/14 00:17:41;;;;;;;27.75;17.33;;;;;;;17.65;65.92;99076.13;4466820;32;35155;-85
2023/10/14 00:20:10;;;;;;;27.92;16.95;;;;;;;17.40;66.67;99081.81;4452279;32;33696;-87
2023/10/14 00:22:38;;;;;;;26.62;16.05;;;;;;;17.44;66.53;99086.09;4452458;32;32910;-86
2023/10/14 00:25:18;;;;;;;24.87;16.00;;;;;;;17.34;66.88;99079.28;4454728;32;33672;-86
2023/10/14 00:27:46;;;;;;;24.00;16.23;;;;;;;17.40;66.64;99081.81;4465084;32;35538;-86
2023/10/14 00:30:14;;;;;;;26.55;16.45;;;;;;;17.50;66.35;99075.53;4459721;32;33771;-86
2023/10/14 00:32:41;;;;;;;27.48;16.30;;;;;;;17.48;66.36;99071.19;4464673;32;33472;-86
2023/10/14 00:35:11;;;;;;;23.85;17.02;;;;;;;17.40;66.56;99076.56;4451735;32;34866;-86
2023/10/14 00:37:39;;;;;;;21.75;15.27;;;;;;;17.30;66.96;99076.72;4451157;32;34052;-87
2023/10/14 00:40:22;;;;;;;26.45;17.17;;;;;;;17.32;67.06;99069.72;4450863;32;34047;-86
2023/10/14 00:42:51;;;;;;;22.67;15.40;;;;;;;17.30;67.27;99074.09;4453694;32;33555;-86
2023/10/14 00:45:21;;;;;;;26.25;15.50;;;;;;;17.29;67.52;99068.00;4456357;32;33711;-86
2023/10/14 00:47:50;;;;;;;24.92;16.83;;;;;;;17.33;67.42;99067.06;4453963;32;34159;-84
2023/10/14 00:52:57;;;;;;;26.10;15.65;;;;;;;17.35;66.89;99060.06;4453806;32;33358;-85
2023/10/14 00:55:27;;;;;;;27.10;16.45;;;;;;;17.49;66.20;99050.19;4454587;32;34840;-85
2023/10/14 00:57:54;;;;;;;24.52;16.00;;;;;;;17.46;66.11;99050.25;4464718;32;33718;-86
2023/10/14 01:00:34;;;;;;;23.52;15.30;;;;;;;17.47;66.28;99045.88;4465328;32;34887;-86
2023/10/14 01:03:07;;;;;;;26.12;16.75;;;;;;;17.47;66.10;99044.12;4458215;32;32981;-85
2023/10/14 01:05:36;;;;;;;22.40;16.00;;;;;;;17.44;66.10;99036.31;4452977;32;33723;-85
2023/10/14 01:08:11;;;;;;;25.05;15.90;;;;;;;17.42;66.10;99019.72;4453771;32;35386;-86
2023/10/14 01:10:39;;;;;;;23.40;15.95;;;;;;;17.31;66.45;99016.44;4452006;32;34212;-86
2023/10/14 01:13:09;;;;;;;23.83;15.32;;;;;;;17.42;66.14;99019.72;4453469;32;33550;-85
2023/10/14 01:15:42;;;;;;;23.15;15.73;;;;;;;17.45;66.04;99008.34;4465584;32;33467;-86
2023/10/14 01:18:14;;;;;;;24.08;15.50;;;;;;;17.30;66.78;99006.84;4458836;32;34128;-85
2023/10/14 01:20:42;;;;;;;23.33;15.05;;;;;;;17.21;67.24;98999.16;4457881;32;34111;-85
2023/10/14 01:23:17;;;;;;;27.55;16.98;;;;;;;17.11;67.89;99002.81;4460817;32;33868;-86
2023/10/14 01:25:47;;;;;;;22.58;15.88;;;;;;;17.27;67.22;99002.53;4451307;32;33927;-86
2023/10/14 01:28:20;;;;;;;26.40;15.35;;;;;;;17.26;67.41;98999.94;4457551;32;33748;-86
2023/10/14 01:31:38;;;;;;;23.45;15.30;;;;;;;17.21;67.68;98988.69;4448422;32;33486;-85
2023/10/14 01:34:07;;;;;;;;;;;;;;;17.27;68.03;98988.56;4462151;32;33900;-85
2023/10/14 01:36:39;;;;;;;25.00;16.10;;;;;;;17.38;67.71;98989.22;4450634;32;33940;-85
2023/10/14 01:39:14;;;;;;;22.65;15.30;;;;;;;17.20;68.15;98985.19;4451044;32;33887;-85
2023/10/14 01:41:42;;;;;;;27.33;16.37;;;;;;;17.17;68.42;98992.25;4438046;32;34574;-86
2023/10/14 01:44:10;;;;;;;24.17;15.98;;;;;;;17.22;68.36;98986.00;4436211;32;34665;-86
2023/10/14 01:46:39;;;;;;;26.42;17.30;;;;;;;17.11;68.68;98982.72;4466930;32;34283;-85
2023/10/14 01:49:10;;;;;;;24.23;15.52;;;;;;;17.13;68.47;98978.31;4446724;32;35189;-86
2023/10/14 01:51:38;;;;;;;25.12;15.20;;;;;;;17.26;68.13;98973.72;4465074;32;33621;-86
2023/10/14 01:54:09;;;;;;;26.77;16.12;;;;;;;17.34;67.67;98969.22;4450690;32;33502;-86
2023/10/14 01:56:37;;;;;;;22.75;15.95;;;;;;;17.20;67.69;98961.62;4450672;32;33816;-85
2023/10/14 01:59:05;;;;;;;25.55;15.48;;;;;;;17.09;68.00;98960.06;4437324;32;34067;-86
2023/10/14 02:01:35;;;;;;;23.40;15.80;;;;;;;17.24;67.50;98957.19;4460557;32;34038;-86
2023/10/14 02:04:03;;;;;;;26.23;16.75;;;;;;;17.14;67.64;98953.00;4453513;32;33633;-86
2023/10/14 02:06:31;;;;;;;28.70;18.05;;;;;;;16.92;68.61;98950.72;4461613;32;33171;-85
2023/10/14 02:09:04;;;;;;;27.70;16.77;;;;;;;16.91;68.64;98950.75;4462792;32;33719;-85
2023/10/14 02:11:35;;;;;;;26.50;16.85;;;;;;;16.85;68.95;98951.72;4464082;32;34866;-85
2023/10/14 02:14:07;;;;;;;26.20;17.85;;;;;;;17.09;68.14;98952.22;4461806;32;33500;-86
2023/10/14 02:16:41;;;;;;;27.65;16.42;;;;;;;17.07;68.02;98943.50;4459864;32;33912;-85
2023/10/14 02:19:36;;;;;;;34.13;18.42;;;;;;;16.94;68.10;98938.47;4441729;32;33820;-85
2023/10/14 02:22:11;;;;;;;25.42;18.20;;;;;;;16.86;68.23;98937.75;4449402;32;34124;-86
2023/10/14 02:24:40;;;;;;;29.87;17.90;;;;;;;16.94;67.87;98932.38;4452443;32;33510;-86
2023/10/14 02:27:13;;;;;;;33.55;19.55;;;;;;;16.99;67.67;98933.16;4453331;32;33568;-85
2023/10/14 02:29:44;;;;;;;24.52;16.33;;;;;;;16.86;68.47;98927.28;4436560;32;34612;-86
2023/10/14 02:32:13;;;;;;;27.05;17.98;;;;;;;16.93;67.84;98926.28;4459645;32;32767;-87
2023/10/14 02:34:44;;;;;;;29.20;17.60;;;;;;;16.98;67.54;98936.69;4462192;32;33285;-85
2023/10/14 02:37:13;;;;;;;28.70;17.33;;;;;;;16.86;67.83;98924.66;4458265;32;34958;-85
2023/10/14 02:39:43;;;;;;;30.50;17.90;;;;;;;16.87;67.65;98934.22;4443763;32;33553;-86
2023/10/14 02:42:14;;;;;;;28.40;17.85;;;;;;;16.84;67.66;98930.81;4445580;32;33866;-86
2023/10/14 02:44:51;;;;;;;27.70;18.62;;;;;;;16.90;67.29;98930.72;4452958;32;33561;-86
2023/10/14 02:47:19;;;;;;;;;;;;;;;16.77;67.51;98924.78;4451496;32;31990;-85
2023/10/14 02:49:53;;;;;;;26.70;17.33;;;;;;;17.12;66.49;98928.56;4457134;32;34303;-86
2023/10/14 02:52:29;;;;;;;27.45;16.50;;;;;;;16.83;66.98;98919.47;4458227;32;33648;-85
2023/10/14 02:55:50;;;;;;;27.25;17.15;;;;;;;16.82;67.00;98917.75;4452715;32;33547;-85
2023/10/14 02:57:53;;;;;;;29.10;17.60;;;;;;;16.73;67.28;98917.84;4457171;32;32394;-85
2023/10/14 03:00:28;;;;;;;27.62;17.55;;;;;;;16.69;67.26;98910.94;4463748;32;34268;-85
2023/10/14 03:03:02;;;;;;;26.73;17.30;;;;;;;16.74;67.07;98912.63;4452143;32;33847;-85
2023/10/14 03:05:42;;;;;;;26.27;18.50;;;;;;;16.71;66.90;98914.41;4454506;32;34512;-85
2023/10/14 03:08:11;;;;;;;28.10;18.33;;;;;;;16.61;67.42;98918.91;4438522;32;33610;-86
2023/10/14 03:10:39;;;;;;;28.52;18.48;;;;;;;16.63;67.32;98922.38;4461123;32;34923;-85
2023/10/14 03:13:11;;;;;;;25.37;18.17;;;;;;;16.61;67.43;98924.13;4461894;32;34791;-85
2023/10/14 03:15:44;;;;;;;26.25;18.52;;;;;;;16.58;67.43;98923.31;4452603;32;33543;-85
2023/10/14 03:18:13;;;;;;;28.55;19.02;;;;;;;16.59;67.27;98922.44;4447640;32;34042;-85
2023/10/14 03:21:00;;;;;;;24.70;17.12;;;;;;;16.63;66.90;98921.47;4452702;32;33636;-85
2023/10/14 03:23:28;;;;;;;27.17;18.17;;;;;;;16.68;66.29;98919.69;4456468;32;33858;-85
2023/10/14 03:26:12;;;;;;;27.58;17.92;;;;;;;16.36;67.03;98918.41;4467501;32;33762;-85
2023/10/14 03:28:44;;;;;;;25.48;16.37;;;;;;;16.44;66.65;98919.19;4465557;32;33931;-85
2023/10/14 03:31:17;;;;;;;25.95;18.12;;;;;;;16.49;66.19;98912.13;4464328;32;35728;-84
2023/10/14 03:33:46;;;;;;;26.02;18.42;;;;;;;16.29;66.66;98911.56;4465909;32;33779;-85
2023/10/14 03:36:17;;;;;;;29.27;18.67;;;;;;;16.39;66.07;98901.81;4441016;32;34285;-85
2023/10/14 03:38:55;;;;;;;27.40;19.75;;;;;;;16.39;65.86;98894.81;4460135;32;33925;-85
2023/10/14 03:41:28;;;;;;;27.48;18.35;;;;;;;16.33;66.13;98894.94;4465624;32;34089;-85
2023/10/14 03:46:32;;;;;;;26.00;17.87;;;;;;;16.30;66.02;98900.19;4452417;32;33323;-85
2023/10/14 03:51:59;;;;;;;25.90;19.37;;;;;;;16.28;66.19;98888.87;4445072;32;34233;-86
2023/10/14 03:54:28;;;;;;;27.52;19.58;;;;;;;16.14;66.65;98890.81;4462908;32;35523;-86
2023/10/14 03:57:03;;;;;;;28.87;19.10;;;;;;;16.09;66.96;98884.78;4452217;32;34646;-84
2023/10/14 03:59:33;;;;;;;28.48;19.87;;;;;;;16.06;67.14;98890.94;4462125;32;34706;-85
2023/10/14 04:02:05;;;;;;;29.10;19.75;;;;;;;16.04;67.27;98880.50;4462608;32;35112;-85
2023/10/14 04:04:33;;;;;;;27.98;20.00;;;;;;;16.00;67.36;98881.44;4461082;32;33880;-86
2023/10/14 04:09:46;;;;;;;28.45;19.83;;;;;;;16.04;66.91;98877.88;4451135;32;33837;-86
2023/10/14 04:12:37;;;;;;;26.48;19.65;;;;;;;16.06;66.72;98872.63;4451705;32;35037;-85
2023/10/14 04:15:15;;;;;;;33.40;23.48;;;;;;;16.15;65.96;98876.88;4451914;32;33630;-84
2023/10/14 04:17:48;;;;;;;29.95;23.17;;;;;;;15.99;66.61;98869.25;4454588;32;34635;-85
2023/10/14 04:20:33;;;;;;;34.28;23.75;;;;;;;15.96;66.96;98873.66;4464176;32;33725;-85
2023/10/14 04:23:05;;;;;;;30.90;23.17;;;;;;;16.03;66.91;98867.47;4456569;32;33837;-84
2023/10/14 04:25:42;;;;;;;35.08;23.17;;;;;;;16.03;66.93;98868.31;4456898;32;33881;-86
2023/10/14 04:28:30;;;;;;;34.58;23.00;;;;;;;16.01;67.08;98875.31;4454130;32;34011;-85
2023/10/14 04:31:06;;;;;;;35.50;23.35;;;;;;;15.93;67.37;98882.41;4462268;32;34052;-85
2023/10/14 04:33:44;;;;;;;34.67;24.23;;;;;;;15.90;67.80;98879.81;4439149;32;33876;-85
2023/10/14 04:38:43;;;;;;;34.65;24.73;;;;;;;15.91;68.35;98878.06;4461456;32;33592;-85
2023/10/14 04:41:14;;;;;;;35.38;24.37;;;;;;;15.87;68.68;98882.47;4440752;32;34425;-85
2023/10/14 04:46:19;;;;;;;28.62;22.50;;;;;;;16.01;67.68;98880.53;4457468;32;33589;-86
2023/10/14 04:48:51;;;;;;;32.00;21.95;;;;;;;16.01;67.84;98880.53;4463793;32;33595;-84
2023/10/14 04:51:19;;;;;;;31.40;21.98;;;;;;;16.01;67.58;98877.91;4455988;32;33513;-85
2023/10/14 04:53:51;;;;;;;29.73;22.80;;;;;;;15.96;67.64;98871.03;4461216;32;34852;-85
2023/10/14 04:56:22;;;;;;;31.25;22.62;;;;;;;15.96;67.70;98871.91;4466955;32;33680;-85
2023/10/14 04:58:52;;;;;;;31.65;22.73;;;;;;;15.97;67.49;98860.53;4457393;32;34415;-85
2023/10/14 05:01:24;;;;;;;26.60;20.75;;;;;;;16.05;66.99;98857.81;4456045;32;32944;-90
2023/10/14 05:03:57;;;;;;;26.90;20.50;;;;;;;16.07;66.60;98853.44;4453588;32;34218;-88
2023/10/14 05:06:40;;;;;;;30.17;21.70;;;;;;;15.97;66.65;98850.09;4442393;32;33707;-86
2023/10/14 05:09:27;;;;;;;28.67;20.90;;;;;;;15.83;66.90;98849.41;4439299;32;33524;-86
2023/10/14 05:11:57;;;;;;;31.33;22.87;;;;;;;15.84;66.82;98856.38;4449243;32;32606;-85
2023/10/14 05:14:36;;;;;;;38.03;24.58;;;;;;;15.93;66.45;98853.62;4465949;32;34026;-86
2023/10/14 05:17:26;;;;;;;30.25;24.60;;;;;;;15.86;66.47;98849.38;4453970;32;34616;-86
2023/10/14 05:19:58;;;;;;;34.42;24.20;;;;;;;15.86;66.34;98857.22;4467125;32;36196;-85
2023/10/14 05:22:37;;;;;;;34.45;26.27;;;;;;;15.90;66.08;98851.06;4458620;32;34620;-86
2023/10/14 05:25:15;;;;;;;32.90;24.83;;;;;;;15.87;66.20;98855.47;4453892;32;34048;-85
2023/10/14 05:27:54;;;;;;;34.10;24.23;;;;;;;15.87;66.08;98858.06;4459308;32;33934;-86
2023/10/14 05:30:23;;;;;;;28.95;24.05;;;;;;;15.73;66.40;98850.44;4446297;32;34131;-85
2023/10/14 05:32:51;;;;;;;33.45;24.73;;;;;;;15.87;66.01;98850.22;4437558;32;34148;-86
2023/10/14 05:35:22;;;;;;;31.05;23.73;;;;;;;15.77;66.18;98855.59;4463932;32;35078;-85
2023/10/14 05:37:50;;;;;;;33.50;25.58;;;;;;;15.80;65.99;98854.72;4446683;32;34103;-86
2023/10/14 05:40:21;;;;;;;34.25;24.63;;;;;;;15.84;65.98;98856.38;4459145;32;33425;-85
2023/10/14 05:42:50;;;;;;;30.15;24.05;;;;;;;15.89;65.89;98858.94;4458841;32;34230;-85
2023/10/14 05:45:18;;;;;;;32.40;24.42;;;;;;;15.86;65.98;98857.22;4458555;32;33686;-86
2023/10/14 05:47:46;;;;;;;32.22;24.73;;;;;;;15.89;65.87;98853.72;4458684;32;34385;-85
2023/10/14 05:50:14;;;;;;;35.13;27.65;;;;;;;15.98;65.67;98853.56;4466363;32;33305;-83
2023/10/14 05:52:44;;;;;;;34.05;24.80;;;;;;;15.87;65.89;98858.94;4456809;32;34588;-84
2023/10/14 05:55:12;;;;;;;32.92;26.15;;;;;;;15.85;66.30;98867.72;4465418;32;34123;-84
2023/10/14 05:57:40;;;;;;;35.88;26.75;;;;;;;15.86;66.81;98864.19;4463642;32;33827;-83
2023/10/14 06:00:20;;;;;;;35.90;26.42;;;;;;;15.92;66.73;98862.38;4456791;32;33292;-83
2023/10/14 06:02:51;;;;;;;36.47;26.70;;;;;;;15.94;66.93;98865.81;4442293;32;33926;-85
2023/10/14 06:05:21;;;;;;;37.45;26.30;;;;;;;15.89;67.23;98867.63;4447115;32;34999;-86
2023/10/14 06:07:49;;;;;;;32.40;24.20;;;;;;;15.99;67.12;98861.41;4461454;32;33706;-85
2023/10/14 06:10:23;;;;;;;36.90;25.33;;;;;;;15.82;68.32;98866.00;4438823;32;33363;-84
2023/10/14 06:12:52;;;;;;;35.20;24.40;;;;;;;16.08;67.45;98859.53;4455589;32;34714;-83
2023/10/14 06:15:20;;;;;;;34.50;24.40;;;;;;;16.15;67.52;98853.34;4448342;32;34024;-83
2023/10/14 06:17:48;;;;;;;30.10;24.85;;;;;;;16.10;68.27;98858.66;4436673;32;34777;-84
2023/10/14 06:20:20;;;;;;;33.05;24.67;;;;;;;16.11;68.46;98859.50;4439803;32;33305;-83
2023/10/14 06:22:48;;;;;;;36.80;24.98;;;;;;;16.19;68.90;98857.63;4449486;32;33906;-83
2023/10/14 06:25:16;;;;;;;34.03;26.70;;;;;;;16.18;69.33;98848.94;4451068;32;33867;-83
2023/10/14 06:27:45;;;;;;;36.15;26.37;;;;;;;16.20;69.84;98849.75;4459846;32;34236;-86
2023/10/14 06:30:19;;;;;;;37.42;26.23;;;;;;;16.18;70.59;98858.53;4446734;32;33360;-83
2023/10/14 06:32:58;;;;;;;38.72;27.10;;;;;;;16.36;70.75;98849.53;4455103;32;34624;-82
2023/10/14 06:35:27;;;;;;;32.88;26.08;;;;;;;16.33;71.20;98858.31;4454989;32;34742;-83
2023/10/14 06:37:54;;;;;;;38.13;27.77;;;;;;;16.40;71.38;98859.03;4454822;32;33502;-83
2023/10/14 06:40:22;;;;;;;36.60;27.55;;;;;;;16.51;71.46;98871.06;4459129;32;33036;-84
2023/10/14 06:42:50;;;;;;;39.90;30.10;;;;;;;16.56;71.62;98867.53;4458592;32;33652;-83
2023/10/14 06:45:21;;;;;;;39.58;29.87;;;;;;;16.60;72.17;98870.06;4442873;32;35047;-82
2023/10/14 06:47:51;;;;;;;42.17;32.30;;;;;;;16.74;71.91;98865.50;4456994;32;33895;-87
2023/10/14 06:50:23;;;;;;;44.15;31.87;;;;;;;16.84;71.84;98858.34;4450784;32;34230;-86
2023/10/14 06:53:07;;;;;;;40.85;29.52;;;;;;;16.83;71.79;98867.09;4454579;32;34028;-84
2023/10/14 06:55:39;;;;;;;42.13;29.45;;;;;;;16.88;71.79;98854.78;4457329;32;33710;-84
2023/10/14 06:58:09;;;;;;;41.40;31.40;;;;;;;16.99;71.86;98863.31;4445523;32;34535;-85
2023/10/14 07:00:38;;;;;;;45.95;30.40;;;;;;;17.07;72.23;98870.16;4437406;32;33545;-84
2023/10/14 07:03:10;;;;;;;41.10;29.23;;;;;;;17.03;72.59;98862.38;4436470;32;33976;-86
2023/10/14 07:05:48;;;;;;;40.42;31.20;;;;;;;17.05;72.50;98864.09;4438979;32;33752;-83
2023/10/14 07:08:19;;;;;;;46.92;29.98;;;;;;;17.17;72.43;98864.75;4436802;32;33582;-84
2023/10/14 07:10:51;;;;;;;39.25;29.92;;;;;;;17.24;72.25;98868.97;4450503;32;32767;-83
2023/10/14 07:13:21;;;;;;;46.45;31.75;;;;;;;17.18;73.08;98860.34;4437943;32;34060;-86
2023/10/14 07:15:50;;;;;;;42.33;29.92;;;;;;;17.53;72.19;98854.41;4455095;32;33709;-84
2023/10/14 07:18:28;;;;;;;40.10;29.30;;;;;;;17.50;72.37;98847.50;4438179;32;34264;-84
2023/10/14 07:20:59;;;;;;;40.53;28.70;;;;;;;17.59;72.06;98842.97;4451143;32;33342;-87
2023/10/14 07:23:34;;;;;;;42.58;29.00;;;;;;;17.92;70.59;98837.03;4461244;32;33679;-83
2023/10/14 07:26:09;;;;;;;40.05;29.45;;;;;;;17.81;70.00;98839.03;4458539;32;34073;-84
2023/10/14 07:28:51;;;;;;;41.10;27.30;;;;;;;17.94;69.78;98829.97;4458097;32;33851;-84
2023/10/14 07:31:19;;;;;;;40.22;28.98;;;;;;;17.97;69.28;98835.16;4441099;32;33300;-83
2023/10/14 07:33:47;;;;;;;36.97;27.50;;;;;;;18.12;69.10;98819.97;4452707;32;33635;-83
2023/10/14 07:36:15;;;;;;;36.60;27.02;;;;;;;18.31;67.78;98826.50;4455314;32;34071;-87
2023/10/14 07:38:44;;;;;;;36.22;26.52;;;;;;;18.31;67.73;98834.37;4464977;32;33896;-84
2023/10/14 07:41:12;;;;;;;36.25;27.25;;;;;;;18.60;67.04;98830.16;4468325;32;33366;-89
2023/10/14 07:43:40;;;;;;;38.90;27.08;;;;;;;18.56;66.82;98839.03;4466598;32;34940;-84
2023/10/14 07:46:08;;;;;;;39.92;26.92;;;;;;;18.59;67.25;98826.69;4460029;32;34230;-84
2023/10/14 07:48:37;;;;;;;40.40;28.10;;;;;;;18.80;66.90;98825.31;4459973;32;34276;-86
2023/10/14 07:51:06;;;;;;;42.13;26.52;;;;;;;18.58;66.22;98822.34;4459879;32;34517;-86
2023/10/14 07:53:54;;;;;;;40.92;25.92;;;;;;;18.62;66.34;98821.34;4458954;32;34860;-85
2023/10/14 07:56:23;;;;;;;39.85;26.62;;;;;;;18.71;65.87;98818.53;4454221;32;33790;-87
2023/10/14 07:58:52;;;;;;;35.03;26.02;;;;;;;18.86;66.14;98825.13;4453509;32;33655;-83
2023/10/14 08:01:23;;;;;;;36.00;24.48;;;;;;;19.22;64.51;98819.81;4457819;32;34471;-85
2023/10/14 08:03:56;;;;;;;37.95;26.45;;;;;;;19.01;64.43;98825.63;4463535;32;33646;-85
2023/10/14 08:06:25;;;;;;;31.35;24.05;;;;;;;18.79;65.72;98828.84;4459562;32;33807;-87
2023/10/14 08:08:53;;;;;;;38.95;25.35;;;;;;;19.10;65.18;98825.41;4463188;32;34190;-86
2023/10/14 08:11:22;;;;;;;38.03;25.65;;;;;;;19.32;64.41;98826.53;4452107;32;33702;-85
2023/10/14 08:13:49;;;;;;;33.30;24.92;;;;;;;19.29;64.40;98824.00;4452437;32;33965;-83
2023/10/14 08:16:18;;;;;;;34.13;24.20;;;;;;;19.60;63.67;98813.44;4453681;32;34104;-87
2023/10/14 08:18:46;;;;;;;36.15;24.85;;;;;;;19.63;64.23;98810.78;4444470;32;34129;-86
2023/10/14 08:21:14;;;;;;;30.02;22.85;;;;;;;19.66;63.06;98810.69;4455309;32;33486;-87
2023/10/14 08:23:42;;;;;;;34.53;24.35;;;;;;;19.84;63.63;98814.50;4467777;32;34679;-87
2023/10/14 08:26:13;;;;;;;32.30;22.77;;;;;;;20.22;62.22;98820.34;4458333;32;34553;-87
2023/10/14 08:28:42;;;;;;;29.87;22.70;;;;;;;20.12;61.70;98818.94;4462588;32;34699;-86
2023/10/14 08:31:11;;;;;;;33.25;22.77;;;;;;;20.26;61.97;98815.84;4462301;32;32851;-88
2023/10/14 08:33:39;;;;;;;33.05;21.37;;;;;;;20.37;62.08;98817.22;4462208;32;33977;-90
2023/10/14 08:36:13;;;;;;;31.83;21.85;;;;;;;20.59;61.04;98816.56;4458473;32;35092;-91
2023/10/14 08:38:43;;;;;;;32.90;22.37;;;;;;;20.54;61.25;98806.19;4462208;32;36683;-86
2023/10/14 08:41:15;;;;;;;33.40;22.52;;;;;;;20.74;60.05;98807.28;4460053;32;33262;-91
2023/10/14 08:43:49;;;;;;;33.83;22.13;;;;;;;20.76;59.41;98795.78;4446415;32;33482;-87
2023/10/14 08:46:18;;;;;;;27.62;20.77;;;;;;;21.06;58.91;98800.88;4461292;32;33659;-87
2023/10/14 08:48:50;;;;;;;26.25;19.80;;;;;;;21.01;59.12;98800.19;4447573;32;34148;-86
2023/10/14 08:51:18;;;;;;;26.80;20.35;;;;;;;21.12;58.81;98800.66;4448125;32;34301;-87
2023/10/14 08:53:53;;;;;;;29.25;19.67;;;;;;;21.11;59.16;98785.78;4459561;32;33929;-92
2023/10/14 08:56:22;;;;;;;23.85;18.75;;;;;;;21.33;57.69;98781.47;4451490;32;35113;-87
2023/10/14 08:58:50;;;;;;;26.80;19.58;;;;;;;21.42;57.01;98780.25;4465039;32;33876;-89
2023/10/14 09:01:18;;;;;;;27.65;18.25;;;;;;;21.40;56.71;98791.78;4462816;32;33493;-90
2023/10/14 09:03:49;;;;;;;26.50;18.85;;;;;;;21.41;56.75;98793.50;4449709;32;33525;-88
2023/10/14 09:06:18;;;;;;;25.67;17.65;;;;;;;21.36;56.98;98799.78;4452045;32;33764;-92
2023/10/14 09:08:48;;;;;;;22.45;16.15;;;;;;;21.61;56.06;98793.59;4460770;32;33561;-86
2023/10/14 09:11:33;;;;;;;26.85;17.90;;;;;;;21.58;56.34;98791.09;4467774;32;33441;-85
2023/10/14 09:14:05;;;;;;;24.70;16.77;;;;;;;21.99;55.18;98784.19;4467285;32;33930;-86
2023/10/14 09:16:34;;;;;;;24.83;18.25;;;;;;;22.04;54.71;98782.22;4467392;32;34101;-86
2023/10/14 09:19:05;;;;;;;27.10;19.25;;;;;;;22.37;53.80;98783.59;4467432;32;33800;-87
2023/10/14 09:21:44;;;;;;;26.87;18.37;;;;;;;22.10;54.11;98783.78;4449207;32;33968;-93
2023/10/14 09:24:11;;;;;;;24.73;17.58;;;;;;;22.29;53.53;98778.62;4441096;32;34461;-91
2023/10/14 09:26:43;;;;;;;27.62;18.67;;;;;;;22.52;53.51;98767.13;4452890;32;34243;-94
2023/10/14 09:29:11;;;;;;;27.80;19.40;;;;;;;22.19;53.63;98774.66;4457140;32;33496;-94
2023/10/14 09:31:40;;;;;;;29.00;19.40;;;;;;;22.09;53.79;98771.50;4466204;32;33554;-90
2023/10/14 09:34:21;;;;;;;31.12;20.92;;;;;;;21.90;54.80;98778.44;4440672;32;34059;-92
2023/10/14 09:37:10;;;;;;;29.02;19.23;;;;;;;22.01;53.68;98766.53;4441642;32;34443;-90
2023/10/14 09:39:39;;;;;;;25.55;18.95;;;;;;;22.11;54.08;98772.28;4452049;32;33814;-89
2023/10/14 09:42:24;;;;;;;;;;;;;;;22.29;53.90;98770.72;4453032;32;33104;-91
2023/10/14 09:44:52;;;;;;;29.37;18.23;;;;;;;21.84;54.63;98772.47;4452457;32;34123;-90
2023/10/14 09:47:22;;;;;;;25.33;19.75;;;;;;;22.12;54.24;98774.00;4436319;32;34127;-90
2023/10/14 09:49:51;;;;;;;24.67;18.25;;;;;;;22.18;53.56;98768.50;4450880;32;36777;-89
2023/10/14 09:52:20;;;;;;;29.55;18.25;;;;;;;22.46;53.49;98767.38;4437920;32;34414;-89
2023/10/14 09:54:50;;;;;;;32.00;20.75;;;;;;;22.50;53.06;98766.31;4436823;32;33460;-89
2023/10/14 09:57:19;;;;;;;27.87;18.70;;;;;;;22.53;52.52;98755.62;4441931;32;34138;-87
2023/10/14 09:59:47;;;;;;;28.10;19.85;;;;;;;22.41;53.78;98746.44;4449247;32;34284;-89
2023/10/14 10:02:17;;;;;;;28.75;19.00;;;;;;;22.33;53.00;98749.41;4437752;32;33188;-88
2023/10/14 10:04:47;;;;;;;23.70;18.42;;;;;;;22.54;53.12;98745.00;4461110;32;34808;-90
2023/10/14 10:08:10;;;;;;;27.80;19.45;;;;;;;22.82;52.67;98746.44;4437570;32;34983;-87
2023/10/14 10:10:40;;;;;;;29.45;18.62;;;;;;;22.70;54.14;98747.00;4400760;32;33914;-88
2023/10/14 10:13:08;;;;;;;26.80;17.27;;;;;;;22.93;52.41;98740.72;4448989;32;33489;-86
2023/10/14 10:15:38;;;;;;;26.05;18.35;;;;;;;23.21;52.13;98733.25;4451750;32;33766;-90
2023/10/14 10:18:12;;;;;;;29.95;18.17;;;;;;;23.05;51.59;98726.94;4467400;32;34970;-87
2023/10/14 10:20:48;;;;;;;28.77;18.35;;;;;;;23.04;52.18;98733.19;4454023;32;33528;-88
2023/10/14 10:23:15;;;;;;;24.98;17.70;;;;;;;23.23;50.92;98720.81;4449774;32;33226;-87
2023/10/14 10:25:49;;;;;;;30.35;19.48;;;;;;;23.06;50.69;98712.78;4466845;32;33866;-86
2023/10/14 10:28:23;;;;;;;26.10;17.83;;;;;;;23.17;50.60;98717.59;4438191;32;34157;-87
2023/10/14 10:30:51;;;;;;;29.08;17.98;;;;;;;23.04;52.70;98706.72;4451498;32;33919;-90
2023/10/14 10:33:19;;;;;;;23.50;17.87;;;;;;;23.35;50.31;98689.44;4446311;32;32872;-87
2023/10/14 10:35:57;;;;;;;25.80;17.40;;;;;;;23.22;50.54;98687.38;4451312;32;33651;-87
2023/10/14 10:38:28;;;;;;;28.75;16.65;;;;;;;23.29;52.29;98678.22;4451248;32;33628;-88
2023/10/14 10:41:25;;;;;;;26.83;16.60;;;;;;;23.35;49.91;98684.16;4451432;32;34023;-91
2023/10/14 10:44:05;;;;;;;22.52;16.87;;;;;;;23.09;50.27;98691.50;4431538;32;32448;-88
2023/10/14 10:46:40;;;;;;;26.58;16.55;;;;;;;23.21;49.83;98696.22;4433504;32;34011;-89
2023/10/14 10:49:11;;;;;;;26.17;17.23;;;;;;;23.39;51.78;98704.25;4451355;32;34021;-88
2023/10/14 10:51:52;;;;;;;24.98;15.75;;;;;;;23.27;49.37;98695.94;4437680;32;33715;-86
2023/10/14 10:54:22;;;;;;;24.65;15.95;;;;;;;23.94;47.63;98699.84;4446001;32;33652;-87
2023/10/14 10:56:50;;;;;;;23.45;15.15;;;;;;;23.53;50.65;98696.53;4452825;32;33898;-88
2023/10/14 10:59:37;;;;;;;25.45;16.45;;;;;;;23.58;49.27;98680.44;4468247;32;33849;-88
2023/10/14 11:02:07;;;;;;;25.73;15.43;;;;;;;23.84;48.26;98684.50;4468888;32;34076;-88
2023/10/14 11:04:36;;;;;;;22.70;14.73;;;;;;;24.02;47.87;98686.25;4458384;32;34445;-88
2023/10/14 11:07:06;;;;;;;24.05;15.07;;;;;;;23.87;49.60;98684.34;4444723;32;34763;-87
2023/10/14 11:09:39;;;;;;;23.42;15.45;;;;;;;23.78;48.15;98683.84;4452553;32;35193;-89
2023/10/14 11:12:12;;;;;;;22.87;15.82;;;;;;;24.01;48.29;98687.16;4467233;32;33523;-87
2023/10/14 11:14:39;;;;;;;23.40;15.15;;;;;;;23.74;48.44;98669.03;4467666;32;33439;-87
2023/10/14 11:17:07;;;;;;;24.67;13.75;;;;;;;24.14;47.04;98677.66;4468667;32;33583;-88
2023/10/14 11:19:35;;;;;;;28.10;14.65;;;;;;;23.77;48.14;98674.19;4456433;32;35019;-90
2023/10/14 11:22:04;;;;;;;24.15;14.60;;;;;;;24.07;47.04;98678.91;4452813;32;33926;-89
2023/10/14 11:24:32;;;;;;;21.15;13.90;;;;;;;24.14;46.55;98675.03;4447945;32;34317;-89
2023/10/14 11:27:01;;;;;;;21.45;14.73;;;;;;;23.93;47.69;98673.44;4454443;32;34026;-89
2023/10/14 11:29:33;;;;;;;23.15;14.18;;;;;;;24.32;46.23;98672.34;4444039;32;34973;-89
2023/10/14 11:32:02;;;;;;;26.52;14.87;;;;;;;24.39;46.83;98672.00;4459886;32;34071;-87
2023/10/14 11:34:34;;;;;;;22.33;13.95;;;;;;;24.45;45.27;98670.84;4467246;32;33811;-88
2023/10/14 11:37:03;;;;;;;21.80;14.05;;;;;;;24.23;46.32;98673.69;4456772;32;33635;-88
2023/10/14 11:39:32;;;;;;;23.00;13.93;;;;;;;24.41;45.73;98664.00;4454763;32;33847;-90
2023/10/14 11:42:03;;;;;;;25.65;14.82;;;;;;;24.51;45.62;98651.97;4452886;32;34334;-86
2023/10/14 11:44:30;;;;;;;25.23;14.52;;;;;;;24.50;45.23;98647.59;4461782;32;33789;-89
2023/10/14 11:46:59;;;;;;;24.02;14.07;;;;;;;24.03;46.44;98664.97;4461701;32;33422;-88
2023/10/14 11:49:30;;;;;;;22.17;14.90;;;;;;;24.58;44.21;98644.53;4436593;32;33481;-86
2023/10/14 11:52:00;;;;;;;20.48;13.80;;;;;;;24.14;45.46;98655.62;4437412;32;34191;-87
2023/10/14 11:54:28;;;;;;;17.48;11.80;;;;;;;24.28;44.79;98647.81;4437601;32;33295;-87
2023/10/14 11:56:55;;;;;;;22.92;12.55;;;;;;;24.57;45.20;98630.44;4437599;32;33806;-87